createdAt,value
2022-09-17T00:01:29.407Z,99462.81
2022-09-17T00:04:17.280Z,99423.84
2022-09-17T00:07:05.272Z,99457.72
2022-09-17T00:09:53.001Z,99467.09
2022-09-17T00:12:41.354Z,99468.63
2022-09-17T00:15:29.363Z,99457.72
2022-09-17T00:18:17.218Z,99462.78
2022-09-17T00:21:05.090Z,99467.69
2022-09-17T00:24:02.554Z,99474.03
2022-09-17T00:26:50.788Z,99472.19
2022-09-17T00:29:38.546Z,99474.50
2022-09-17T00:32:27.377Z,99460.47
2022-09-17T00:35:15.082Z,99476.47
2022-09-17T00:38:02.922Z,99475.09
2022-09-17T00:40:50.760Z,99483.56
2022-09-17T00:43:47.256Z,99477.88
2022-09-17T00:46:36.299Z,99493.28
2022-09-17T00:49:29.716Z,99492.97
2022-09-17T00:52:24.547Z,99481.72
2022-09-17T00:55:24.946Z,99486.94
2022-09-17T00:58:15.967Z,99473.72
2022-09-17T01:01:04.448Z,99474.47
2022-09-17T01:03:52.257Z,99466.94
2022-09-17T01:06:51.641Z,99469.56
2022-09-17T01:10:06.414Z,99481.72
2022-09-17T01:13:18.547Z,99465.25
2022-09-17T01:16:17.598Z,99485.09
2022-09-17T01:19:45.579Z,99475.72
2022-09-17T01:23:09.270Z,99485.56
2022-09-17T01:26:02.535Z,99485.72
2022-09-17T01:29:20.081Z,99485.88
2022-09-17T01:32:28.357Z,99492.50
2022-09-17T01:35:35.943Z,99487.56
2022-09-17T01:38:56.704Z,99479.88
2022-09-17T01:42:14.287Z,99472.63
2022-09-17T01:45:22.401Z,99482.34
2022-09-17T01:48:20.852Z,99497.91
2022-09-17T01:51:13.218Z,99481.25
2022-09-17T01:54:11.131Z,99478.94
2022-09-17T01:57:09.164Z,99482.78
2022-09-17T02:00:12.009Z,99489.44
2022-09-17T02:03:24.419Z,99493.88
2022-09-17T02:06:21.923Z,99489.44
2022-09-17T02:09:22.365Z,99495.91
2022-09-17T02:12:16.696Z,99494.34
2022-09-17T02:15:11.344Z,99460.47
2022-09-17T02:18:27.759Z,99479.56
2022-09-17T02:21:30.636Z,99493.72
2022-09-17T02:24:41.663Z,99488.47
2022-09-17T02:28:11.395Z,99487.25
2022-09-17T02:30:59.434Z,99484.81
2022-09-17T02:33:53.982Z,99472.78
2022-09-17T02:36:41.715Z,99493.88
2022-09-17T02:39:29.731Z,99477.88
2022-09-17T02:43:02.625Z,99498.34
2022-09-17T02:46:27.374Z,99492.78
2022-09-17T02:49:50.073Z,99494.66
2022-09-17T02:53:29.424Z,99490.19
2022-09-17T02:56:43.138Z,99487.72
2022-09-17T02:59:59.227Z,99498.53
2022-09-17T03:03:23.480Z,99499.88
2022-09-17T03:06:11.923Z,99499.88
2022-09-17T03:08:59.667Z,99492.19
2022-09-17T03:11:47.518Z,99490.06
2022-09-17T03:14:35.275Z,99483.25
2022-09-17T03:17:23.001Z,99481.88
2022-09-17T03:20:10.729Z,99491.28
2022-09-17T03:22:58.495Z,99484.03
2022-09-17T03:25:47.010Z,99473.56
2022-09-17T03:28:34.778Z,99478.03
2022-09-17T03:31:22.712Z,99469.41
2022-09-17T03:34:10.573Z,99478.97
2022-09-17T03:36:58.273Z,99499.44
2022-09-17T03:39:46.024Z,99504.81
2022-09-17T03:42:33.755Z,99503.16
2022-09-17T03:45:21.531Z,99507.00
2022-09-17T03:48:09.448Z,99497.13
2022-09-17T03:50:57.213Z,99505.59
2022-09-17T03:53:45.007Z,99505.75
2022-09-17T03:56:33.306Z,99507.44
2022-09-17T03:59:21.057Z,99486.03
2022-09-17T04:02:08.895Z,99496.97
2022-09-17T04:04:56.850Z,99512.84
2022-09-17T04:07:44.580Z,99511.91
2022-09-17T04:10:32.566Z,99515.59
2022-09-17T04:13:21.310Z,99488.78
2022-09-17T04:16:09.108Z,99513.63
2022-09-17T04:18:56.981Z,99523.00
2022-09-17T04:21:44.793Z,99515.59
2022-09-17T04:24:32.511Z,99522.41
2022-09-17T04:27:20.286Z,99525.91
2022-09-17T04:30:12.120Z,99532.53
2022-09-17T04:32:59.836Z,99525.91
2022-09-17T04:35:48.057Z,99538.41
2022-09-17T04:38:35.869Z,99537.50
2022-09-17T04:41:23.674Z,99520.06
2022-09-17T04:44:11.426Z,99538.09
2022-09-17T04:46:59.273Z,99491.44
2022-09-17T04:49:47.082Z,99527.31
2022-09-17T04:52:34.827Z,99544.59
2022-09-17T04:55:22.659Z,99523.94
2022-09-17T04:58:11.077Z,99548.88
2022-09-17T05:00:58.853Z,99533.63
2022-09-17T05:03:46.654Z,99545.03
2022-09-17T05:06:34.388Z,99543.47
2022-09-17T05:09:22.106Z,99547.31
2022-09-17T05:12:09.843Z,99551.34
2022-09-17T05:14:57.583Z,99544.53
2022-09-17T05:17:46.064Z,99549.94
2022-09-17T05:20:34.065Z,99558.25
2022-09-17T05:23:21.965Z,99562.88
2022-09-17T05:26:10.073Z,99549.75
2022-09-17T05:28:57.897Z,99561.00
2022-09-17T05:31:45.942Z,99556.09
2022-09-17T05:34:33.972Z,99546.50
2022-09-17T05:37:21.714Z,99570.53
2022-09-17T05:40:10.335Z,99547.41
2022-09-17T05:43:02.839Z,99579.00
2022-09-17T05:45:50.752Z,99572.19
2022-09-17T05:48:38.505Z,99579.47
2022-09-17T05:51:26.266Z,99577.44
2022-09-17T05:54:14.039Z,99572.66
2022-09-17T05:57:01.833Z,99572.97
2022-09-17T05:59:49.633Z,99579.97
2022-09-17T06:02:37.494Z,99562.44
2022-09-17T06:05:25.526Z,99565.38
2022-09-17T06:08:13.306Z,99564.72
2022-09-17T06:11:05.495Z,99582.59
2022-09-17T06:13:54.755Z,99586.44
2022-09-17T06:16:42.802Z,99555.63
2022-09-17T06:19:30.570Z,99594.72
2022-09-17T06:22:20.230Z,99592.25
2022-09-17T06:25:08.272Z,99600.09
2022-09-17T06:27:56.022Z,99596.31
2022-09-17T06:30:43.754Z,99570.84
2022-09-17T06:33:32.548Z,99612.38
2022-09-17T06:36:20.272Z,99618.72
2022-09-17T06:39:08.272Z,99583.63
2022-09-17T06:41:56.005Z,99609.97
2022-09-17T06:44:43.854Z,99606.72
2022-09-17T06:47:31.590Z,99572.69
2022-09-17T06:50:19.662Z,99610.53
2022-09-17T06:53:07.449Z,99608.22
2022-09-17T06:56:02.309Z,99611.75
2022-09-17T06:58:54.270Z,99615.13
2022-09-17T07:01:42.819Z,99617.44
2022-09-17T07:04:30.636Z,99612.34
2022-09-17T07:07:18.420Z,99616.38
2022-09-17T07:10:06.921Z,99618.50
2022-09-17T07:12:54.869Z,99617.16
2022-09-17T07:15:42.680Z,99606.97
2022-09-17T07:18:30.667Z,99613.72
2022-09-17T07:21:18.436Z,99618.31
2022-09-17T07:24:06.493Z,99625.72
2022-09-17T07:26:54.277Z,99615.44
2022-09-17T07:29:42.130Z,99625.63
2022-09-17T07:32:31.365Z,99619.97
2022-09-17T07:35:19.126Z,99586.13
2022-09-17T07:38:06.892Z,99611.19
2022-09-17T07:40:59.173Z,99625.72
2022-09-17T07:43:46.985Z,99621.09
2022-09-17T07:46:34.829Z,99609.97
2022-09-17T07:49:22.676Z,99613.22
2022-09-17T07:52:10.752Z,99630.13
2022-09-17T07:54:58.546Z,99633.50
2022-09-17T07:57:51.638Z,99632.56
2022-09-17T08:00:43.096Z,99618.81
2022-09-17T08:03:31.251Z,99639.28
2022-09-17T08:06:28.323Z,99634.84
2022-09-17T08:09:18.507Z,99611.00
2022-09-17T08:12:06.630Z,99634.72
2022-09-17T08:14:54.363Z,99628.88
2022-09-17T08:17:46.245Z,99648.16
2022-09-17T08:20:34.308Z,99648.69
2022-09-17T08:23:22.189Z,99643.06
2022-09-17T08:26:27.960Z,99642.34
2022-09-17T08:29:16.059Z,99637.28
2022-09-17T08:32:03.882Z,99640.00
2022-09-17T08:34:57.974Z,99637.22
2022-09-17T08:37:47.342Z,99616.81
2022-09-17T08:40:52.700Z,99642.56
2022-09-17T08:44:07.487Z,99640.50
2022-09-17T08:47:06.219Z,99631.88
2022-09-17T08:50:00.126Z,99632.75
2022-09-17T08:53:12.955Z,99632.41
2022-09-17T08:56:09.506Z,99620.72
2022-09-17T08:59:12.036Z,99625.16
2022-09-17T09:02:21.503Z,99623.06
2022-09-17T09:05:26.765Z,99632.59
2022-09-17T09:08:30.507Z,99618.41
2022-09-17T09:11:27.533Z,99612.53
2022-09-17T09:14:39.415Z,99597.97
2022-09-17T09:17:35.846Z,99637.28
2022-09-17T09:21:12.415Z,99616.56
2022-09-17T09:24:26.699Z,99626.81
2022-09-17T09:27:28.483Z,99633.22
2022-09-17T09:30:23.465Z,99639.63
2022-09-17T09:33:19.499Z,99643.78
2022-09-17T09:36:14.314Z,99647.19
